Time;durP1;ratioP1;P1;durP2;ratioP2;P2;SDS_P1;SDS_P2;PMS_P1;PMS_P2;Temp;Humidity;BMP_temperature;BMP_pressure;BME280_temperature;BME280_humidity;BME280_pressure;Samples;Min_cycle;Max_cycle;Signal;HPM_P1;HPM_P2
2022/07/25 00:01:05;;;;;;;12.23;11.13;;;;;;;;;;5076486;28;20935;-85
2022/07/25 00:03:32;;;;;;;12.40;11.13;;;;;;;;;;5076249;28;20461;-85
2022/07/25 00:05:59;;;;;;;11.67;10.47;;;;;;;;;;5076239;28;20449;-85
2022/07/25 00:08:27;;;;;;;11.80;10.77;;;19.40;99.90;;;;;;5075122;28;20481;-86
2022/07/25 00:10:54;;;;;;;11.93;10.83;;;;;;;;;;5076306;28;20449;-86
2022/07/25 00:13:21;;;;;;;11.57;10.57;;;;;;;;;;5076281;28;20933;-87
2022/07/25 00:15:48;;;;;;;12.20;11.00;;;;;;;;;;5076031;28;20477;-86
2022/07/25 00:18:15;;;;;;;11.33;10.33;;;;;;;;;;5076111;28;20445;-85
2022/07/25 00:20:42;;;;;;;11.07;10.03;;;;;;;;;;5076083;28;20449;-87
2022/07/25 00:23:09;;;;;;;11.93;10.87;;;;;;;;;;5074986;28;20491;-86
2022/07/25 00:25:37;;;;;;;11.97;10.70;;;19.10;99.90;;;;;;5075985;28;20442;-87
2022/07/25 00:28:05;;;;;;;11.70;10.50;;;;;;;;;;5075907;28;20492;-86
2022/07/25 00:30:32;;;;;;;11.87;10.77;;;;;;;;;;5076033;28;20827;-86
2022/07/25 00:32:59;;;;;;;12.20;11.10;;;;;;;;;;5075850;28;20835;-86
2022/07/25 00:35:26;;;;;;;11.97;10.87;;;;;;;;;;5075891;28;20447;-86
2022/07/25 00:37:53;;;;;;;11.30;10.13;;;;;;;;;;5074541;28;20449;-84
2022/07/25 00:40:20;;;;;;;11.63;10.50;;;;;;;;;;5075834;28;20482;-87
2022/07/25 00:42:48;;;;;;;11.20;10.20;;;19.00;99.90;;;;;;5075783;28;20444;-87
2022/07/25 00:45:15;;;;;;;11.50;10.40;;;;;;;;;;5075626;28;20963;-86
2022/07/25 00:47:42;;;;;;;11.00;10.10;;;;;;;;;;5074772;28;20442;-86
2022/07/25 00:50:10;;;;;;;11.63;10.70;;;;;;;;;;5075615;28;20456;-86
2022/07/25 00:52:37;;;;;;;11.40;10.30;;;;;;;;;;5074558;28;20446;-85
2022/07/25 00:55:05;;;;;;;11.87;10.20;;;18.90;99.90;;;;;;5075413;28;20804;-85
2022/07/25 00:57:32;;;;;;;11.90;10.80;;;;;;;;;;5075329;28;20445;-86
2022/07/25 01:00:00;;;;;;;12.43;11.17;;;18.90;99.90;;;;;;5075539;28;20449;-87
2022/07/25 01:02:27;;;;;;;17.10;10.97;;;;;;;;;;5075581;28;20453;-86
2022/07/25 01:04:55;;;;;;;11.00;10.10;;;;;;;;;;5075528;28;20445;-85
2022/07/25 01:07:23;;;;;;;11.93;10.70;;;;;;;;;;5074066;28;20782;-86
2022/07/25 01:09:50;;;;;;;11.67;10.67;;;;;;;;;;5075353;28;20547;-85
2022/07/25 01:12:17;;;;;;;12.63;11.27;;;;;;;;;;5075337;28;20521;-86
2022/07/25 01:14:44;;;;;;;11.20;10.20;;;;;;;;;;5075071;28;20434;-86
2022/07/25 01:17:13;;;;;;;13.10;11.83;;;18.80;99.90;;;;;;5075292;28;20446;-85
2022/07/25 01:19:40;;;;;;;12.70;11.50;;;;;;;;;;5075215;28;20449;-86
2022/07/25 01:22:08;;;;;;;11.90;10.70;;;18.70;99.90;;;;;;5073993;28;20449;-87
2022/07/25 01:24:35;;;;;;;14.93;11.00;;;18.60;99.90;;;;;;5075060;28;20457;-86
2022/07/25 01:27:02;;;;;;;13.07;11.93;;;;;;;;;;5074754;28;20979;-85
2022/07/25 01:29:29;;;;;;;12.20;11.13;;;;;;;;;;5075811;28;20489;-87
2022/07/25 01:31:57;;;;;;;11.90;10.90;;;;;;;;;;5076080;28;20457;-86
2022/07/25 01:34:24;;;;;;;12.00;10.90;;;;;;;;;;5076884;28;20450;-86
2022/07/25 01:36:51;;;;;;;12.27;11.17;;;;;;;;;;5077323;28;20460;-87
2022/07/25 01:39:19;;;;;;;11.77;10.80;;;18.50;99.90;;;;;;5076355;28;20983;-86
2022/07/25 01:41:46;;;;;;;11.00;10.10;;;;;;;;;;5074537;28;20465;-87
2022/07/25 01:44:13;;;;;;;11.97;10.77;;;;;;;;;;5074771;28;20440;-87
2022/07/25 01:46:40;;;;;;;11.87;10.77;;;;;;;;;;5074675;28;20449;-85
2022/07/25 01:49:07;;;;;;;11.30;10.30;;;;;;;;;;5074567;28;20495;-86
2022/07/25 01:51:34;;;;;;;11.40;10.40;;;;;;;;;;5073343;28;20445;-85
2022/07/25 01:54:01;;;;;;;11.63;10.63;;;;;;;;;;5074492;28;20458;-87
2022/07/25 01:56:29;;;;;;;10.23;9.13;;;18.40;99.90;;;;;;5074511;28;20584;-86
2022/07/25 01:58:56;;;;;;;10.57;9.77;;;;;;;;;;5073906;28;20446;-85
2022/07/25 02:01:23;;;;;;;12.33;11.13;;;;;;;;;;5073671;28;20438;-85
2022/07/25 02:03:50;;;;;;;11.67;9.93;;;;;;;;;;5074441;28;20801;-85
2022/07/25 02:06:18;;;;;;;11.50;10.50;;;;;;;;;;5074414;28;20437;-86
2022/07/25 02:08:45;;;;;;;11.57;10.47;;;;;;;;;;5073124;28;20489;-86
2022/07/25 02:11:12;;;;;;;10.87;9.87;;;;;;;;;;5078533;28;20441;-85
2022/07/25 02:13:40;;;;;;;11.63;10.53;;;18.30;99.90;;;;;;5082582;28;20438;-86
2022/07/25 02:16:07;;;;;;;11.27;10.17;;;;;;;;;;5074573;28;20489;-85
2022/07/25 02:18:34;;;;;;;12.03;10.97;;;;;;;;;;5073845;28;20450;-87
2022/07/25 02:21:01;;;;;;;11.07;10.00;;;;;;;;;;5073856;28;20438;-87
2022/07/25 02:23:28;;;;;;;10.87;9.77;;;;;;;;;;5072425;28;20445;-87
2022/07/25 02:25:55;;;;;;;11.00;10.10;;;;;;;;;;5073601;28;20437;-85
2022/07/25 02:28:23;;;;;;;11.97;10.70;;;;;;;;;;5073418;28;20461;-86
2022/07/25 02:30:51;;;;;;;11.53;10.43;;;18.20;99.90;;;;;;5073490;28;20453;-87
2022/07/25 02:33:18;;;;;;;11.60;10.60;;;;;;;;;;5073502;28;20454;-85
2022/07/25 02:35:45;;;;;;;9.97;9.17;;;;;;;;;;5073423;28;20445;-86
2022/07/25 02:38:18;;;;;;;11.63;10.53;;;;;;;;;;5072016;28;20466;-87
2022/07/25 02:40:45;;;;;;;11.90;10.90;;;;;;;;;;5073305;28;20441;-85
2022/07/25 02:43:12;;;;;;;10.40;9.40;;;;;;;;;;5073239;28;20453;-86
2022/07/25 02:45:39;;;;;;;10.60;9.53;;;;;;;;;;5073388;28;20801;-86
2022/07/25 02:48:08;;;;;;;11.33;10.33;;;18.20;99.90;;;;;;5073256;28;20448;-86
2022/07/25 02:50:35;;;;;;;11.03;10.03;;;;;;;;;;5072945;28;20499;-86
2022/07/25 02:53:02;;;;;;;11.30;10.30;;;;;;;;;;5072106;28;20445;-87
2022/07/25 02:55:29;;;;;;;12.07;10.50;;;;;;;;;;5073157;28;20453;-86
2022/07/25 02:57:56;;;;;;;11.17;10.07;;;;;;;;;;5073177;28;20445;-85
2022/07/25 03:00:24;;;;;;;11.80;10.60;;;;;;;;;;5072742;28;20453;-86
2022/07/25 03:02:51;;;;;;;11.13;10.13;;;;;;;;;;5072736;28;20450;-85
2022/07/25 03:05:19;;;;;;;10.97;10.00;;;17.90;99.90;;;;;;5073113;28;20456;-86
2022/07/25 03:07:46;;;;;;;11.63;10.63;;;;;;;;;;5071992;28;20446;-86
2022/07/25 03:10:14;;;;;;;10.60;9.57;;;17.80;99.90;;;;;;5073142;28;20496;-85
2022/07/25 03:12:41;;;;;;;11.13;10.03;;;;;;;;;;5072940;28;20442;-86
2022/07/25 03:15:11;;;;;;;11.53;10.33;;;17.80;99.90;;;;;;5073019;28;20477;-86
2022/07/25 03:17:38;;;;;;;11.17;10.17;;;17.80;99.90;;;;;;5072937;28;20450;-85
2022/07/25 03:20:07;;;;;;;11.47;10.47;;;17.40;99.90;;;;;;5073230;28;20541;-86
2022/07/25 03:22:36;;;;;;;10.87;9.87;;;17.80;99.90;;;;;;5069342;28;20450;-86
2022/07/25 03:25:04;;;;;;;11.00;9.97;;;17.80;99.90;;;;;;5073065;28;20450;-87
2022/07/25 03:27:31;;;;;;;11.67;10.47;;;;;;;;;;5073070;28;20450;-85
2022/07/25 03:29:58;;;;;;;10.67;9.77;;;;;;;;;;5073070;28;20512;-85
2022/07/25 03:32:25;;;;;;;10.90;9.90;;;;;;;;;;5072871;28;20458;-86
2022/07/25 03:34:52;;;;;;;11.13;10.03;;;;;;;;;;5072828;28;20449;-86
2022/07/25 03:37:19;;;;;;;11.83;10.77;;;;;;;;;;5071569;28;20466;-85
2022/07/25 03:39:48;;;;;;;11.00;9.90;;;17.60;99.90;;;;;;5072884;28;20457;-86
2022/07/25 03:42:15;;;;;;;12.60;11.17;;;17.60;99.90;;;;;;5072758;28;20797;-86
2022/07/25 03:44:42;;;;;;;11.73;10.13;;;;;;;;;;5072652;28;20446;-86
2022/07/25 03:47:09;;;;;;;11.70;10.67;;;;;;;;;;5072697;28;20441;-86
2022/07/25 03:49:37;;;;;;;11.87;10.70;;;;;;;;;;5072544;28;20520;-86
2022/07/25 03:52:04;;;;;;;11.70;10.57;;;;;;;;;;5071593;28;20457;-86
2022/07/25 03:54:31;;;;;;;10.90;10.00;;;;;;;;;;5072713;28;20450;-85
2022/07/25 03:56:59;;;;;;;12.20;11.00;;;17.40;99.90;;;;;;5072880;28;20896;-86
2022/07/25 03:59:26;;;;;;;11.50;10.50;;;;;;;;;;5072369;28;20465;-86
2022/07/25 04:01:53;;;;;;;9.97;9.07;;;;;;;;;;5072546;28;20528;-85
2022/07/25 04:04:20;;;;;;;11.37;10.37;;;;;;;;;;5072593;28;20441;-86
2022/07/25 04:06:47;;;;;;;13.20;11.20;;;;;;;;;;5071249;28;20948;-86
2022/07/25 04:09:14;;;;;;;11.73;9.97;;;;;;;;;;5072653;28;20833;-86
2022/07/25 04:11:41;;;;;;;12.73;11.53;;;;;;;;;;5072450;28;20808;-86
2022/07/25 04:14:10;;;;;;;11.57;10.37;;;;;;;;;;5072560;28;20450;-86
2022/07/25 04:16:37;;;;;;;11.97;10.83;;;;;;;;;;5072414;28;20481;-85
2022/07/25 04:19:05;;;;;;;12.73;11.53;;;;;;;;;;5072466;28;20453;-85
2022/07/25 04:21:32;;;;;;;10.90;9.90;;;;;;;;;;5071272;28;20523;-86
2022/07/25 04:23:59;;;;;;;11.50;10.30;;;;;;;;;;5074348;28;20488;-86
2022/07/25 04:26:26;;;;;;;11.30;10.20;;;;;;;;;;5076000;28;20446;-86
2022/07/25 04:28:55;;;;;;;11.37;10.27;;;;;;;;;;5076044;28;20456;-85
2022/07/25 04:31:24;;;;;;;11.40;10.13;;;17.70;99.90;;;;;;5077262;28;20810;-85
2022/07/25 04:33:51;;;;;;;12.47;11.00;;;;;;;;;;5075980;28;20883;-86
2022/07/25 04:36:18;;;;;;;11.63;10.60;;;;;;;;;;5075910;28;20445;-86
2022/07/25 04:38:45;;;;;;;11.37;10.27;;;;;;;;;;5074692;28;20453;-85
2022/07/25 04:41:12;;;;;;;11.57;10.57;;;;;;;;;;5075691;28;20452;-86
2022/07/25 04:43:39;;;;;;;11.27;10.27;;;;;;;;;;5075792;28;20940;-86
2022/07/25 04:46:06;;;;;;;12.77;11.57;;;;;;;;;;5075465;28;20445;-87
2022/07/25 04:48:35;;;;;;;11.53;10.53;;;18.20;99.90;;;;;;5075538;28;20933;-86
2022/07/25 04:51:02;;;;;;;11.50;10.50;;;;;;;;;;5075564;28;20492;-86
2022/07/25 04:53:29;;;;;;;12.50;11.40;;;;;;;;;;5074298;28;20461;-87
2022/07/25 04:55:56;;;;;;;11.80;10.70;;;;;;;;;;5075577;28;20450;-86
2022/07/25 04:58:23;;;;;;;12.37;11.17;;;;;;;;;;5075552;28;20462;-87
2022/07/25 05:00:50;;;;;;;12.60;10.67;;;;;;;;;;5075441;28;20834;-86
2022/07/25 05:03:17;;;;;;;12.90;11.20;;;;;;;;;;5075347;28;20453;-86
2022/07/25 05:05:45;;;;;;;13.47;11.27;;;19.30;99.90;;;;;;5075180;28;20818;-85
2022/07/25 05:08:12;;;;;;;11.20;10.20;;;;;;;;;;5074002;28;20801;-85
2022/07/25 05:10:40;;;;;;;12.07;10.77;;;;;;;;;;5075161;28;20496;-86
2022/07/25 05:13:07;;;;;;;11.23;10.17;;;;;;;;;;5075039;28;20939;-86
2022/07/25 05:15:34;;;;;;;11.63;10.53;;;;;;;;;;5075167;28;20488;-85
2022/07/25 05:18:01;;;;;;;10.60;9.70;;;;;;;;;;5074929;28;20446;-84
2022/07/25 05:20:28;;;;;;;11.03;9.93;;;;;;;;;;5062732;28;20443;-86
2022/07/25 05:22:56;;;;;;;11.93;10.50;;;21.70;99.90;;;;;;5055516;28;20458;-86
2022/07/25 05:25:24;;;;;;;11.33;10.23;;;;;;;;;;5063014;28;20443;-87
2022/07/25 05:27:53;;;;;;;10.57;9.63;;;;;;;;;;5066581;28;20443;-85
2022/07/25 05:30:20;;;;;;;11.10;10.13;;;;;;;;;;5065363;28;20478;-89
2022/07/25 05:32:47;;;;;;;11.53;9.30;;;;;;;;;;5066106;28;20454;-88
2022/07/25 05:35:15;;;;;;;11.27;10.17;;;;;;;;;;5065711;28;20453;-85
2022/07/25 05:37:46;;;;;;;12.60;10.60;;;22.90;99.90;;;;;;5063218;28;20458;-93
2022/07/25 05:40:14;;;;;;;10.10;9.10;;;23.00;99.90;;;;;;5070604;28;20504;-89
2022/07/25 05:42:41;;;;;;;11.27;10.07;;;;;;;;;;5069389;28;20799;-91
2022/07/25 05:45:09;;;;;;;9.93;8.87;;;;;;;;;;5058766;28;20454;-89
2022/07/25 05:47:36;;;;;;;10.70;9.70;;;;;;;;;;5073864;28;20438;-90
2022/07/25 05:50:03;;;;;;;10.53;9.73;;;;;;;;;;5068024;28;20497;-88
2022/07/25 05:52:30;;;;;;;10.53;9.60;;;;;;;;;;5070033;28;20449;-94
2022/07/25 05:54:58;;;;;;;10.73;9.60;;;;;;;;;;5071507;28;20453;-89
2022/07/25 05:57:26;;;;;;;9.90;9.10;;;24.50;94.80;;;;;;5067381;28;20442;-89
2022/07/25 05:59:53;;;;;;;9.53;8.80;;;;;;;;;;5059011;28;20438;-91
2022/07/25 06:02:20;;;;;;;10.60;9.10;;;;;;;;;;5076997;28;20446;-86
2022/07/25 06:04:48;;;;;;;10.23;9.40;;;;;;;;;;5075336;28;20446;-91
2022/07/25 06:07:15;;;;;;;11.83;8.77;;;;;;;;;;5078035;28;20434;-89
2022/07/25 06:09:42;;;;;;;10.20;9.20;;;;;;;;;;5075789;28;20512;-90
2022/07/25 06:12:09;;;;;;;10.13;9.33;;;;;;;;;;5076784;28;20453;-89
2022/07/25 06:14:37;;;;;;;11.27;10.27;;;25.70;90.60;;;;;;5077164;28;20446;-87
2022/07/25 06:17:04;;;;;;;10.97;9.97;;;;;;;;;;5079097;28;20441;-87
2022/07/25 06:19:31;;;;;;;11.13;10.13;;;;;;;;;;5078797;28;20450;-89
2022/07/25 06:21:58;;;;;;;9.80;9.10;;;;;;;;;;5072851;28;20442;-87
2022/07/25 06:24:26;;;;;;;10.03;9.23;;;;;;;;;;5074645;28;20453;-87
2022/07/25 06:26:53;;;;;;;10.73;9.83;;;;;;;;;;5076115;28;20983;-88
2022/07/25 06:29:20;;;;;;;12.13;9.90;;;;;;;;;;5074184;28;20471;-86
2022/07/25 06:31:48;;;;;;;9.87;9.17;;;26.20;86.40;;;;;;5074757;28;20486;-89
2022/07/25 06:34:15;;;;;;;9.30;8.50;;;;;;;;;;5075658;28;20952;-93
2022/07/25 06:36:42;;;;;;;10.80;9.50;;;;;;;;;;5075424;28;20476;-86
2022/07/25 06:39:09;;;;;;;10.60;9.60;;;;;;;;;;5073707;28;20454;-89
2022/07/25 06:41:36;;;;;;;10.87;9.93;;;;;;;;;;5073493;28;20454;-86
2022/07/25 06:44:04;;;;;;;9.60;8.83;;;;;;;;;;5075064;28;20458;-89
2022/07/25 06:46:31;;;;;;;11.60;10.50;;;;;;;;;;5073329;28;20445;-85
2022/07/25 06:48:59;;;;;;;9.90;9.10;;;26.50;85.50;;;;;;5073950;28;20446;-91
2022/07/25 06:51:27;;;;;;;9.73;8.93;;;;;;;;;;5073375;28;20489;-86
2022/07/25 06:53:54;;;;;;;10.37;9.47;;;;;;;;;;5072908;28;20809;-86
2022/07/25 06:56:21;;;;;;;11.27;10.37;;;;;;;;;;5076468;28;20453;-90
2022/07/25 06:58:48;;;;;;;10.00;9.20;;;;;;;;;;5083001;28;20450;-86
2022/07/25 07:01:15;;;;;;;11.00;10.20;;;;;;;;;;5082303;28;20472;-86
2022/07/25 07:03:42;;;;;;;11.13;10.13;;;;;;;;;;5057313;28;20450;-87
2022/07/25 07:06:10;;;;;;;11.47;8.90;;;27.20;86.20;;;;;;5054917;28;20470;-88
2022/07/25 07:08:38;;;;;;;10.63;9.67;;;;;;;;;;5062159;22;20871;-87
2022/07/25 07:11:05;;;;;;;9.90;9.00;;;;;;;;;;5053103;28;20500;-87
2022/07/25 07:13:32;;;;;;;11.43;10.33;;;;;;;;;;5055672;28;20820;-87
2022/07/25 07:15:59;;;;;;;12.43;9.57;;;;;;;;;;5055603;28;20453;-93
2022/07/25 07:18:26;;;;;;;11.10;10.30;;;;;;;;;;5056725;28;20808;-89
2022/07/25 07:20:53;;;;;;;11.43;10.20;;;;;;;;;;5057110;28;20467;-90
2022/07/25 07:23:22;;;;;;;11.40;10.33;;;28.00;84.80;;;;;;5055793;28;20804;-90
2022/07/25 07:25:49;;;;;;;11.27;10.27;;;;;;;;;;5054170;28;20438;-88
2022/07/25 07:28:16;;;;;;;11.47;10.57;;;;;;;;;;5057468;28;20946;-93
2022/07/25 07:30:44;;;;;;;11.70;10.17;;;;;;;;;;5056238;28;20906;-88
2022/07/25 07:33:13;;;;;;;11.47;10.33;;;27.70;84.00;;;;;;5049702;23;20502;-94
2022/07/25 07:35:40;;;;;;;11.90;10.90;;;;;;;;;;5036034;28;20474;-90
2022/07/25 07:38:08;;;;;;;10.97;10.07;;;;;;;;;;5034034;28;20463;-94
2022/07/25 07:40:36;;;;;;;11.73;10.83;;;27.90;82.60;;;;;;5035460;28;20861;-87
2022/07/25 07:43:05;;;;;;;10.20;9.40;;;27.90;83.00;;;;;;5034732;28;20451;-94
2022/07/25 07:45:32;;;;;;;9.80;9.00;;;;;;;;;;5035152;28;20465;-92
2022/07/25 07:47:59;;;;;;;10.70;9.70;;;;;;;;;;5035467;28;20481;-90
2022/07/25 07:50:27;;;;;;;10.83;9.93;;;28.80;76.10;;;;;;5035548;28;20490;-88
2022/07/25 07:52:57;;;;;;;11.17;10.27;;;28.60;77.90;;;;;;5034938;28;20462;-89
2022/07/25 07:58:10;;;;;;;10.37;9.47;;;;;;;;;;5040543;28;20434;-90
2022/07/25 08:00:39;;;;;;;11.40;10.60;;;29.70;75.60;;;;;;5040037;28;20463;-92
2022/07/25 08:03:07;;;;;;;12.63;11.10;;;30.00;74.60;;;;;;5038227;28;20447;-91
2022/07/25 08:05:37;;;;;;;10.20;9.40;;;30.70;71.30;;;;;;5038555;28;20455;-93
2022/07/25 08:08:05;;;;;;;11.23;10.33;;;31.40;67.10;;;;;;5037330;28;20477;-93
2022/07/25 08:10:37;;;;;;;10.43;9.63;;;30.40;67.50;;;;;;5039802;28;20475;-92
2022/07/25 08:13:14;;;;;;;9.57;8.87;;;30.00;68.10;;;;;;5040379;28;20808;-92
2022/07/25 08:15:41;;;;;;;10.40;9.70;;;;;;;;;;5038857;28;20458;-93
2022/07/25 08:18:08;;;;;;;11.07;10.20;;;;;;;;;;5039133;28;20451;-90
2022/07/25 08:20:35;;;;;;;9.73;8.87;;;;;;;;;;5038577;28;20455;-92
2022/07/25 08:23:03;;;;;;;10.90;9.90;;;;;;;;;;5039247;28;20457;-88
2022/07/25 08:25:30;;;;;;;10.50;9.70;;;;;;;;;;5040719;28;20806;-92
2022/07/25 08:27:58;;;;;;;11.53;10.60;;;;;;;;;;5036448;28;20455;-88
2022/07/25 08:30:26;;;;;;;11.77;10.87;;;33.00;59.00;;;;;;5036040;28;20478;-90
2022/07/25 08:32:56;;;;;;;8.87;8.27;;;33.60;55.50;;;;;;5037238;28;20482;-88
2022/07/25 08:35:24;;;;;;;9.27;8.57;;;32.40;55.90;;;;;;5071501;23;20493;-86
2022/07/25 08:37:51;;;;;;;9.83;9.13;;;;;;;;;;5057924;28;20457;-92
2022/07/25 08:40:21;;;;;;;10.30;9.50;;;32.90;55.40;;;;;;5070196;28;20442;-94
2022/07/25 08:42:48;;;;;;;11.20;10.20;;;;;;;;;;5060347;28;20447;-86
2022/07/25 08:45:18;;;;;;;9.60;8.93;;;33.50;52.90;;;;;;5056592;28;20450;-85
2022/07/25 08:47:47;;;;;;;10.70;9.70;;;32.30;54.80;;;;;;5057553;28;20466;-85
2022/07/25 08:50:16;;;;;;;10.10;9.30;;;31.80;57.40;;;;;;5056800;28;20453;-88
2022/07/25 08:52:44;;;;;;;10.50;9.70;;;;;;;;;;5056729;28;20442;-90
2022/07/25 08:55:13;;;;;;;10.23;9.43;;;32.80;54.50;;;;;;5056088;28;20451;-87
2022/07/25 08:57:42;;;;;;;10.80;9.90;;;33.50;54.50;;;;;;5055379;28;20476;-85
2022/07/25 09:00:12;;;;;;;9.53;8.83;;;33.60;51.30;;;;;;5056527;28;20527;-90
2022/07/25 09:02:39;;;;;;;9.90;9.10;;;;;;;;;;5054881;28;20442;-90
2022/07/25 09:05:08;;;;;;;9.50;8.70;;;32.70;53.90;;;;;;5057726;28;20446;-91
2022/07/25 09:07:37;;;;;;;9.90;9.20;;;32.20;51.80;;;;;;5056511;28;20469;-87
2022/07/25 09:10:13;;;;;;;10.03;9.23;;;;;;;;;;5055570;28;20461;-86
2022/07/25 09:12:41;;;;;;;10.37;9.40;;;;;;;;;;5036264;28;20446;-89
2022/07/25 09:15:08;;;;;;;10.37;9.67;;;33.60;50.00;;;;;;5035773;28;20455;-88
2022/07/25 09:17:36;;;;;;;10.00;9.20;;;;;;;;;;5037636;28;20444;-84
2022/07/25 09:20:05;;;;;;;9.80;9.10;;;;;;;;;;5036958;28;20443;-91
2022/07/25 09:22:43;;;;;;;10.80;9.73;;;34.20;48.50;;;;;;5035243;28;20513;-87
2022/07/25 09:25:21;;;;;;;10.60;9.80;;;34.00;47.30;;;;;;5039291;28;20451;-91
2022/07/25 09:27:48;;;;;;;11.13;10.27;;;;;;;;;;5039078;28;20922;-90
2022/07/25 09:30:16;;;;;;;10.30;9.40;;;36.40;48.20;;;;;;5035997;28;20457;-93
2022/07/25 09:32:43;;;;;;;10.10;9.40;;;;;;;;;;5035331;28;20503;-88
2022/07/25 09:35:10;;;;;;;10.10;9.40;;;;;;;;;;5037179;28;20475;-88
2022/07/25 09:37:38;;;;;;;11.37;10.30;;;35.40;44.90;;;;;;5034296;28;20953;-90
2022/07/25 09:40:13;;;;;;;10.50;9.50;;;35.90;44.80;;;;;;5036895;28;20836;-91
2022/07/25 09:42:41;;;;;;;9.73;9.03;;;;;;;;;;5033548;28;20488;-88
2022/07/25 09:45:11;;;;;;;11.40;10.60;;;35.80;44.70;;;;;;5037131;28;20538;-91
2022/07/25 09:47:49;;;;;;;10.60;9.67;;;35.60;42.20;;;;;;5038219;28;20454;-87
2022/07/25 09:50:18;;;;;;;10.30;9.30;;;35.20;43.20;;;;;;5037093;28;20863;-92
2022/07/25 09:52:46;;;;;;;10.30;9.60;;;33.80;44.50;;;;;;5033353;28;20501;-87
2022/07/25 09:55:15;;;;;;;10.30;9.50;;;;;;;;;;5031464;28;20467;-86
2022/07/25 09:57:43;;;;;;;10.70;9.80;;;;;;;;;;5037408;28;20461;-91
2022/07/25 10:00:15;;;;;;;10.63;9.93;;;35.20;42.80;;;;;;5033408;28;20482;-84
2022/07/25 10:02:49;;;;;;;10.20;9.50;;;35.80;41.00;;;;;;5033489;28;20791;-85
2022/07/25 10:05:20;;;;;;;9.30;8.70;;;35.70;41.60;;;;;;5034846;28;20455;-90
2022/07/25 10:07:52;;;;;;;10.53;9.63;;;34.80;41.00;;;;;;5030680;28;20474;-89
2022/07/25 10:10:25;;;;;;;9.43;8.80;;;34.80;41.20;;;;;;5033752;28;20934;-91
2022/07/25 10:13:04;;;;;;;9.50;8.80;;;33.90;41.20;;;;;;5033923;28;20569;-91
2022/07/25 10:15:47;;;;;;;10.27;9.57;;;33.30;42.60;;;;;;5033544;28;20463;-89
2022/07/25 10:18:16;;;;;;;9.00;8.40;;;34.50;43.50;;;;;;5033199;28;20811;-90
2022/07/25 10:20:44;;;;;;;8.60;8.00;;;35.10;38.80;;;;;;5032980;28;20451;-91
2022/07/25 10:23:20;;;;;;;9.00;8.30;;;35.80;38.80;;;;;;5032312;28;20474;-89
2022/07/25 10:25:47;;;;;;;7.27;6.73;;;;;;;;;;5033317;28;20446;-87
2022/07/25 10:28:19;;;;;;;6.80;6.40;;;36.80;36.30;;;;;;5033383;28;20455;-87
2022/07/25 10:30:46;;;;;;;7.83;7.23;;;;;;;;;;5033689;28;20474;-86
2022/07/25 10:33:15;;;;;;;6.23;5.70;;;36.40;33.00;;;;;;5033503;28;20447;-90
2022/07/25 10:35:43;;;;;;;5.53;5.13;;;;;;;;;;5033061;28;20569;-90
2022/07/25 10:38:10;;;;;;;6.43;5.50;;;;;;;;;;5032529;28;20970;-88
2022/07/25 10:40:41;;;;;;;5.70;5.30;;;36.90;30.60;;;;;;5034515;28;20443;-91
2022/07/25 10:43:08;;;;;;;5.60;5.20;;;;;;;;;;5033922;28;20455;-89
2022/07/25 10:45:40;;;;;;;5.13;4.73;;;37.30;27.10;;;;;;5034198;28;20451;-92
2022/07/25 10:48:08;;;;;;;4.97;4.50;;;36.60;31.00;;;;;;5034548;28;20454;-88
2022/07/25 10:50:36;;;;;;;4.93;4.57;;;;;;;;;;5033456;28;20447;-87
2022/07/25 10:53:06;;;;;;;4.57;4.27;;;;;;;;;;5032144;28;20497;-86
2022/07/25 10:55:35;;;;;;;4.10;3.80;;;37.60;33.50;;;;;;5033886;28;20470;-87
2022/07/25 10:58:05;;;;;;;4.97;4.67;;;37.10;35.20;;;;;;5034175;28;20467;-90
2022/07/25 11:00:33;;;;;;;5.77;5.30;;;37.10;34.20;;;;;;5035363;28;20945;-89
2022/07/25 11:03:01;;;;;;;5.00;4.60;;;;;;;;;;5035056;28;20875;-88
2022/07/25 11:05:29;;;;;;;6.17;5.43;;;;;;;;;;5036279;28;20450;-89
2022/07/25 11:07:56;;;;;;;4.90;4.50;;;;;;;;;;5035575;28;20454;-91
2022/07/25 11:10:27;;;;;;;4.80;4.40;;;35.90;35.30;;;;;;5038256;28;20445;-90
2022/07/25 11:12:55;;;;;;;12.27;11.47;;;;;;;;;;5035840;28;20486;-89
2022/07/25 11:15:25;;;;;;;5.70;5.20;;;;;;;;;;5038986;28;20439;-93
2022/07/25 11:17:54;;;;;;;242.17;146.20;;;36.90;53.60;;;;;;5038983;28;20461;-94
2022/07/25 11:20:21;;;;;;;240.47;146.50;;;;;;;;;;5038563;28;20485;-91
2022/07/25 11:22:53;;;;;;;5.90;5.47;;;36.80;44.30;;;;;;5041403;28;20880;-91
2022/07/25 11:25:22;;;;;;;9.10;8.30;;;37.20;40.40;;;;;;5022813;28;20451;-89
2022/07/25 11:27:56;;;;;;;5.40;5.00;;;;;;;;;;5016348;28;20479;-91
2022/07/25 11:30:26;;;;;;;5.90;5.40;;;35.80;37.90;;;;;;5032515;28;20447;-87
2022/07/25 11:32:55;;;;;;;4.87;4.47;;;36.40;33.10;;;;;;5038057;28;20535;-91
2022/07/25 11:35:26;;;;;;;4.20;3.90;;;36.10;33.20;;;;;;5038395;28;20483;-91
2022/07/25 11:37:53;;;;;;;3.43;3.13;;;;;;;;;;5036584;28;20440;-90
2022/07/25 11:40:21;;;;;;;4.73;4.43;;;35.70;30.10;;;;;;5039243;28;20456;-90
2022/07/25 11:42:49;;;;;;;7.03;4.67;;;36.20;32.50;;;;;;5044269;28;20463;-89
2022/07/25 11:45:17;;;;;;;5.13;4.73;;;;;;;;;;5044463;28;20443;-92
2022/07/25 11:47:47;;;;;;;5.67;5.20;;;36.60;31.20;;;;;;5045253;28;20420;-94
2022/07/25 11:50:14;;;;;;;4.73;4.43;;;;;;;;;;5046524;28;20451;-92
2022/07/25 11:52:44;;;;;;;5.37;4.97;;;36.70;32.20;;;;;;5047502;28;20523;-94
2022/07/25 11:55:13;;;;;;;8.00;7.40;;;36.70;39.30;;;;;;5043711;28;20459;-93
2022/07/25 11:57:43;;;;;;;5.30;4.80;;;35.60;28.50;;;;;;5045636;28;20451;-91
2022/07/25 12:00:16;;;;;;;6.00;5.10;;;34.70;29.10;;;;;;5044198;28;20455;-94
2022/07/25 12:02:43;;;;;;;5.93;5.43;;;;;;;;;;5039535;28;20466;-86
2022/07/25 12:05:14;;;;;;;8.03;5.50;;;35.40;26.80;;;;;;5050260;28;20447;-92
2022/07/25 12:07:44;;;;;;;5.23;4.93;;;35.00;25.70;;;;;;5046883;22;20529;-92
2022/07/25 12:10:12;;;;;;;5.60;5.20;;;;;;;;;;5046010;28;20494;-92
2022/07/25 12:12:48;;;;;;;5.57;5.07;;;35.40;26.80;;;;;;5044128;28;20451;-94
2022/07/25 12:15:18;;;;;;;5.57;5.07;;;36.00;25.70;;;;;;5051973;28;20460;-93
2022/07/25 12:17:46;;;;;;;5.87;5.27;;;;;;;;;;5051128;28;20789;-87
2022/07/25 12:20:18;;;;;;;5.40;5.00;;;35.90;25.60;;;;;;5046749;28;20459;-87
2022/07/25 12:22:46;;;;;;;6.10;5.60;;;;;;;;;;5037538;28;20494;-94
2022/07/25 12:25:13;;;;;;;5.97;5.47;;;;;;;;;;5039755;28;20466;-87
2022/07/25 12:27:41;;;;;;;5.47;4.97;;;;;;;;;;5039137;28;20467;-91
2022/07/25 12:30:09;;;;;;;5.23;4.90;;;36.60;26.20;;;;;;5042221;28;20946;-89
2022/07/25 12:32:37;;;;;;;5.43;5.03;;;;;;;;;;5042434;28;20451;-95
2022/07/25 12:35:04;;;;;;;6.10;5.60;;;;;;;;;;5041345;28;20921;-93
2022/07/25 12:37:33;;;;;;;5.97;5.57;;;36.90;28.30;;;;;;5039405;28;20455;-95
2022/07/25 12:40:00;;;;;;;5.70;5.20;;;;;;;;;;5037185;28;20482;-95
2022/07/25 12:42:28;;;;;;;4.40;4.00;;;;;;;;;;5036584;28;20482;-87
2022/07/25 12:44:55;;;;;;;5.47;4.97;;;;;;;;;;5035700;28;20451;-90
2022/07/25 12:47:22;;;;;;;4.70;4.40;;;;;;;;;;5037352;28;20458;-93
2022/07/25 12:49:49;;;;;;;5.43;5.03;;;;;;;;;;5036397;28;20459;-94
2022/07/25 12:52:17;;;;;;;5.60;5.20;;;;;;;;;;5036626;28;20440;-94
2022/07/25 12:54:47;;;;;;;5.40;5.00;;;;;;;;;;5037508;28;20452;-95
2022/07/25 12:57:14;;;;;;;6.13;5.63;;;34.30;30.80;;;;;;5036435;28;20459;-88
2022/07/25 12:59:42;;;;;;;6.67;6.00;;;;;;;;;;5036329;28;20443;-93
2022/07/25 13:02:09;;;;;;;6.33;5.80;;;;;;;;;;5035592;28;20575;-86
2022/07/25 13:04:36;;;;;;;6.33;5.83;;;;;;;;;;5036218;28;20530;-94
2022/07/25 13:07:04;;;;;;;6.60;5.90;;;;;;;;;;5036516;28;20489;-91
2022/07/25 13:09:31;;;;;;;6.97;5.70;;;;;;;;;;5043292;28;20546;-91
2022/07/25 13:11:59;;;;;;;5.97;5.57;;;;;;;;;;5041195;28;20462;-91
2022/07/25 13:14:27;;;;;;;6.60;6.10;;;;;;;;;;5035973;28;20460;-93
2022/07/25 13:16:54;;;;;;;6.70;6.10;;;;;;;;;;5036920;28;20452;-93
2022/07/25 13:19:21;;;;;;;6.67;6.17;;;;;;;;;;5036167;28;20447;-94
2022/07/25 13:21:48;;;;;;;6.53;5.80;;;;;;;;;;5035874;28;20440;-87
2022/07/25 13:24:15;;;;;;;6.17;5.67;;;;;;;;;;5035890;28;20456;-92
2022/07/25 13:26:43;;;;;;;6.17;5.70;;;;;;;;;;5035553;28;20487;-90
2022/07/25 13:29:11;;;;;;;6.47;5.90;;;34.50;28.30;;;;;;5035662;28;20457;-91
2022/07/25 13:31:39;;;;;;;6.40;5.90;;;;;;;;;;5034379;28;20459;-92
2022/07/25 13:34:07;;;;;;;8.70;7.90;;;;;;;;;;5035269;28;20497;-90
2022/07/25 13:36:34;;;;;;;8.17;6.53;;;;;;;;;;5035171;28;20970;-92
2022/07/25 13:39:01;;;;;;;9.40;7.40;;;;;;;;;;5036478;28;20517;-91
2022/07/25 13:41:28;;;;;;;5.80;5.30;;;;;;;;;;5033504;28;20780;-86
2022/07/25 13:43:56;;;;;;;7.60;7.00;;;;;;;;;;5034873;28;20510;-93
2022/07/25 13:46:24;;;;;;;7.70;7.00;;;34.00;39.80;;;;;;5034918;28;20462;-85
2022/07/25 13:48:53;;;;;;;8.60;7.77;;;;;;;;;;5022191;28;20902;-93
2022/07/25 13:51:20;;;;;;;8.30;7.50;;;;;;;;;;5014595;28;20460;-88
2022/07/25 13:53:47;;;;;;;7.60;7.00;;;;;;;;;;5014472;28;20483;-90